createdAt,value
2023-03-11T00:01:23.253Z,97507.60
2023-03-11T00:06:26.541Z,97500.80
2023-03-11T00:11:29.702Z,97492.20
2023-03-11T00:16:35.271Z,97495.00
2023-03-11T00:21:38.359Z,97486.80
2023-03-11T00:26:41.362Z,97481.00
2023-03-11T00:31:44.376Z,97480.00
2023-03-11T00:36:47.762Z,97477.80
2023-03-11T00:41:51.940Z,97495.20
2023-03-11T00:46:54.906Z,97464.60
2023-03-11T00:51:57.784Z,97451.60
2023-03-11T00:57:00.707Z,97456.80
2023-03-11T01:02:03.698Z,97451.80
2023-03-11T01:07:06.630Z,97442.60
2023-03-11T01:12:09.554Z,97440.60
2023-03-11T01:17:12.517Z,97423.20
2023-03-11T01:22:16.155Z,97410.40
2023-03-11T01:27:19.075Z,97414.60
2023-03-11T01:32:22.326Z,97417.40
2023-03-11T01:37:25.535Z,97411.40
2023-03-11T01:42:28.449Z,97403.80
2023-03-11T01:47:40.173Z,97396.00
2023-03-11T01:52:44.833Z,97396.60
2023-03-11T01:57:48.430Z,97384.00
2023-03-11T02:02:58.926Z,97384.20
2023-03-11T02:08:02.137Z,97376.20
2023-03-11T02:13:05.172Z,97373.80
2023-03-11T02:18:09.721Z,97377.80
2023-03-11T02:23:18.978Z,97381.00
2023-03-11T02:28:25.183Z,97399.00
2023-03-11T02:33:33.379Z,97381.80
2023-03-11T02:38:36.752Z,97384.40
2023-03-11T02:43:45.945Z,97389.00
2023-03-11T02:48:49.688Z,97394.80
2023-03-11T02:53:59.866Z,97388.40
2023-03-11T02:59:03.166Z,97390.00
2023-03-11T03:04:06.248Z,97387.40
2023-03-11T03:09:09.153Z,97385.60
2023-03-11T03:14:12.193Z,97386.00
2023-03-11T03:19:15.070Z,97389.40
2023-03-11T03:24:17.998Z,97389.00
2023-03-11T03:29:20.910Z,97391.20
2023-03-11T03:34:24.065Z,97411.40
2023-03-11T03:39:28.789Z,97419.20
2023-03-11T03:44:33.928Z,97417.00
2023-03-11T03:49:36.846Z,97421.80
2023-03-11T03:54:39.779Z,97411.80
2023-03-11T03:59:42.760Z,97421.60
2023-03-11T04:04:47.630Z,97426.60
2023-03-11T04:09:50.594Z,97424.40
2023-03-11T04:14:56.524Z,97430.20
2023-03-11T04:19:59.925Z,97433.40
2023-03-11T04:25:06.895Z,97437.20
2023-03-11T04:30:10.925Z,97440.00
2023-03-11T04:35:13.919Z,97441.00
2023-03-11T04:40:17.774Z,97443.80
2023-03-11T04:45:23.859Z,97450.00
2023-03-11T04:50:26.851Z,97446.80
2023-03-11T04:55:33.610Z,97451.40
2023-03-11T05:00:36.916Z,97453.00
2023-03-11T05:05:40.122Z,97461.00
2023-03-11T05:10:45.053Z,97458.60
2023-03-11T05:15:48.896Z,97461.60
2023-03-11T05:20:53.458Z,97459.80
2023-03-11T05:25:56.558Z,97462.80
2023-03-11T05:30:59.754Z,97467.80
2023-03-11T05:36:08.915Z,97480.20
2023-03-11T05:41:11.874Z,97488.80
2023-03-11T05:46:15.167Z,97501.00
2023-03-11T05:51:18.405Z,97495.20
2023-03-11T05:56:23.396Z,97503.40
2023-03-11T06:01:29.604Z,97500.40
2023-03-11T06:06:33.323Z,97513.80
2023-03-11T06:11:39.823Z,97525.00
2023-03-11T06:16:43.153Z,97528.60
2023-03-11T06:21:46.191Z,97546.60
2023-03-11T06:26:52.932Z,97561.80
2023-03-11T06:31:56.728Z,97578.60
2023-03-11T06:37:00.390Z,97584.80
2023-03-11T06:42:04.042Z,97593.00
2023-03-11T06:47:09.692Z,97606.20
2023-03-11T06:52:12.797Z,97610.60
2023-03-11T06:57:16.929Z,97619.20
2023-03-11T07:02:19.916Z,97634.00
2023-03-11T07:07:22.900Z,97645.40
2023-03-11T07:12:26.482Z,97662.40
2023-03-11T07:17:32.827Z,97670.80
2023-03-11T07:22:36.194Z,97689.40
2023-03-11T07:27:41.614Z,97693.60
2023-03-11T07:32:47.183Z,97702.40
2023-03-11T07:37:50.283Z,97706.00
2023-03-11T07:42:53.335Z,97722.40
2023-03-11T07:47:56.388Z,97734.20
2023-03-11T07:52:59.343Z,97738.80
2023-03-11T07:58:02.484Z,97730.40
2023-03-11T08:03:08.809Z,97735.40
2023-03-11T08:08:11.999Z,97754.60
2023-03-11T08:13:15.067Z,97766.60
2023-03-11T08:18:18.353Z,97770.80
2023-03-11T08:23:21.292Z,97774.00
2023-03-11T08:28:24.382Z,97793.60
2023-03-11T08:33:27.944Z,97797.60
2023-03-11T08:38:31.020Z,97797.60
2023-03-11T08:43:34.368Z,97822.00
2023-03-11T08:48:38.079Z,97840.00
2023-03-11T08:53:41.661Z,97849.60
2023-03-11T08:58:45.408Z,97853.80
2023-03-11T09:03:48.763Z,97856.00
2023-03-11T09:08:51.875Z,97887.00
2023-03-11T09:13:55.397Z,97885.60
2023-03-11T09:19:00.445Z,97901.60
2023-03-11T09:24:05.135Z,97917.80
2023-03-11T09:29:08.038Z,97923.80
2023-03-11T09:34:16.047Z,97932.40
2023-03-11T09:39:19.838Z,97947.80
2023-03-11T09:44:45.274Z,97957.20
2023-03-11T09:50:16.940Z,97954.60
2023-03-11T09:55:45.658Z,97964.80
2023-03-11T10:00:52.598Z,97986.00
2023-03-11T10:06:31.148Z,97992.60
2023-03-11T10:12:08.042Z,98008.40
2023-03-11T10:17:58.900Z,98018.80
2023-03-11T10:23:15.782Z,98040.60
2023-03-11T10:28:37.688Z,98049.40
2023-03-11T10:34:16.273Z,98063.80
2023-03-11T10:39:42.254Z,98071.80
2023-03-11T10:44:52.551Z,98083.40
2023-03-11T10:49:57.977Z,98087.20
2023-03-11T10:55:03.545Z,98101.00
2023-03-11T11:00:30.558Z,98109.20
2023-03-11T11:05:42.324Z,98123.80
2023-03-11T11:10:56.904Z,98134.80
2023-03-11T11:16:23.280Z,98141.60
2023-03-11T11:21:37.507Z,98134.80
2023-03-11T11:26:41.258Z,98146.60
2023-03-11T11:31:49.060Z,98152.80
2023-03-11T11:37:07.557Z,98163.80
2023-03-11T11:42:14.873Z,98177.40
2023-03-11T11:47:26.289Z,98185.40
2023-03-11T11:52:40.076Z,98199.80
2023-03-11T11:57:43.001Z,98202.80
2023-03-11T12:03:30.713Z,98214.00
2023-03-11T12:09:01.177Z,98228.00
2023-03-11T12:14:28.008Z,98224.00
2023-03-11T12:19:47.037Z,98246.00
2023-03-11T12:25:10.285Z,98249.20
2023-03-11T12:30:27.315Z,98267.80
2023-03-11T12:35:35.808Z,98276.20
2023-03-11T12:40:47.776Z,98286.60
2023-03-11T12:45:53.495Z,98299.20
2023-03-11T12:51:00.177Z,98307.20
2023-03-11T12:56:42.629Z,98310.20
2023-03-11T13:02:24.704Z,98330.60
2023-03-11T13:07:43.665Z,98345.40
2023-03-11T13:12:51.406Z,98336.80
2023-03-11T13:18:05.411Z,98348.60
2023-03-11T13:23:14.264Z,98359.40
2023-03-11T13:28:45.318Z,98374.40
2023-03-11T13:34:04.918Z,98387.00
2023-03-11T13:39:39.892Z,98394.40
2023-03-11T13:44:43.547Z,98407.00
2023-03-11T13:50:20.698Z,98417.00
2023-03-11T13:55:40.560Z,98424.80
2023-03-11T14:00:56.896Z,98436.80
2023-03-11T14:06:10.822Z,98434.60
2023-03-11T14:11:18.120Z,98444.20
2023-03-11T14:16:36.479Z,98454.00
2023-03-11T14:21:51.411Z,98473.40
2023-03-11T14:26:59.623Z,98482.80
2023-03-11T14:32:25.965Z,98496.00
2023-03-11T14:37:37.509Z,98512.60
2023-03-11T14:42:44.074Z,98524.80
2023-03-11T14:48:03.770Z,98532.20
2023-03-11T14:53:16.652Z,98546.00
2023-03-11T14:59:07.974Z,98557.00
2023-03-11T15:04:33.224Z,98563.40
2023-03-11T15:09:41.507Z,98582.60
2023-03-11T15:14:51.800Z,98597.20
2023-03-11T15:19:56.139Z,98598.60
2023-03-11T15:25:03.084Z,98598.80
2023-03-11T15:30:24.609Z,98613.40
2023-03-11T15:35:30.896Z,98614.40
2023-03-11T15:40:44.870Z,98621.00
2023-03-11T15:45:49.290Z,98627.20
2023-03-11T15:51:06.635Z,98644.40
2023-03-11T15:56:20.158Z,98650.60
2023-03-11T16:01:28.563Z,98662.40
2023-03-11T16:06:31.578Z,98666.20
2023-03-11T16:11:41.156Z,98680.60
2023-03-11T16:16:47.728Z,98696.60
2023-03-11T16:21:50.925Z,98708.00
2023-03-11T16:26:54.602Z,98720.80
2023-03-11T16:31:57.622Z,98731.40
2023-03-11T16:37:00.947Z,98745.40
2023-03-11T16:42:04.285Z,98756.20
2023-03-11T16:47:07.386Z,98762.60
2023-03-11T16:52:10.527Z,98778.40
2023-03-11T16:57:13.666Z,98781.40
2023-03-11T17:02:16.749Z,98783.40
2023-03-11T17:07:19.939Z,98804.20
2023-03-11T17:12:27.403Z,98810.20
2023-03-11T17:17:30.383Z,98823.00
2023-03-11T17:22:33.966Z,98820.60
2023-03-11T17:27:38.413Z,98834.80
2023-03-11T17:38:02.884Z,98851.00
2023-03-11T17:43:05.999Z,98862.80
2023-03-11T17:48:09.233Z,98867.00
2023-03-11T17:53:12.131Z,98865.40
2023-03-11T17:58:15.204Z,98875.40
2023-03-11T18:03:18.104Z,98877.00
2023-03-11T18:08:21.126Z,98885.40
2023-03-11T18:13:24.648Z,98885.20
2023-03-11T18:18:30.321Z,98883.80
2023-03-11T18:23:34.617Z,98899.60
2023-03-11T18:28:38.075Z,98903.00
2023-03-11T18:33:46.593Z,98909.00
2023-03-11T18:38:50.708Z,98922.20
2023-03-11T18:43:58.347Z,98937.00
2023-03-11T18:49:03.932Z,98936.40
2023-03-11T18:54:07.232Z,98925.80
2023-03-11T18:59:12.206Z,98933.40
2023-03-11T19:04:15.787Z,98946.20
2023-03-11T19:09:19.052Z,98940.00
2023-03-11T19:14:22.354Z,98945.60
2023-03-11T19:19:25.579Z,98957.80
2023-03-11T19:24:28.924Z,98961.00
2023-03-11T19:29:32.254Z,98971.60
2023-03-11T19:34:35.380Z,98972.00
2023-03-11T19:39:38.501Z,98983.40
2023-03-11T19:44:44.182Z,98991.60
2023-03-11T19:49:53.114Z,98996.80
2023-03-11T19:54:56.314Z,99004.60
2023-03-11T19:59:59.844Z,99005.80
2023-03-11T20:05:03.780Z,99012.20
2023-03-11T20:10:07.563Z,99021.20
2023-03-11T20:15:11.429Z,99020.00
2023-03-11T20:20:14.995Z,99022.80
2023-03-11T20:25:18.215Z,99025.00
2023-03-11T20:30:22.011Z,99029.00
2023-03-11T20:35:25.118Z,99029.20
2023-03-11T20:40:28.252Z,99029.80
2023-03-11T20:45:31.608Z,99032.40
2023-03-11T20:50:35.207Z,99039.40
2023-03-11T20:55:41.029Z,99034.60
2023-03-11T21:00:44.314Z,99038.20
2023-03-11T21:05:47.605Z,99042.00
2023-03-11T21:10:51.165Z,99046.60
2023-03-11T21:15:55.265Z,99042.60
2023-03-11T21:20:58.612Z,99046.60
2023-03-11T21:26:04.260Z,99041.40
2023-03-11T21:31:16.995Z,99041.80
2023-03-11T21:36:20.205Z,99032.60
2023-03-11T21:41:26.786Z,99025.80
2023-03-11T21:46:32.376Z,99032.20
2023-03-11T21:51:35.701Z,99040.40
2023-03-11T21:56:39.881Z,99034.80
2023-03-11T22:01:43.425Z,99032.20
2023-03-11T22:06:46.598Z,99037.80
2023-03-11T22:11:51.956Z,99035.60
2023-03-11T22:16:55.123Z,99032.80
2023-03-11T22:21:58.570Z,99028.20
2023-03-11T22:27:01.800Z,99022.80
2023-03-11T22:32:05.634Z,99023.60
2023-03-11T22:37:11.691Z,99025.00
2023-03-11T22:42:14.726Z,99018.00
2023-03-11T22:47:17.824Z,99026.80
2023-03-11T22:52:21.194Z,99018.00
2023-03-11T22:57:27.048Z,99010.80
2023-03-11T23:02:30.275Z,99013.80
2023-03-11T23:07:44.571Z,99011.00
2023-03-11T23:12:47.977Z,99006.80
2023-03-11T23:17:51.022Z,98997.00
2023-03-11T23:22:54.068Z,99004.40
2023-03-11T23:27:58.032Z,98993.00
2023-03-11T23:33:09.047Z,98997.00
2023-03-11T23:38:15.333Z,98992.20
2023-03-11T23:43:18.403Z,98984.00
2023-03-11T23:48:27.328Z,98975.40
2023-03-11T23:53:32.394Z,98981.00
2023-03-11T23:58:35.592Z,98976.20
